createdAt,value
2018-12-24T00:00:20.040Z,987.63
2018-12-24T00:01:20.037Z,987.67
2018-12-24T00:02:20.032Z,987.64
2018-12-24T00:03:20.078Z,987.63
2018-12-24T00:04:20.028Z,987.59
2018-12-24T00:05:20.022Z,987.64
2018-12-24T00:06:20.020Z,987.64
2018-12-24T00:07:20.015Z,987.63
2018-12-24T00:08:20.009Z,987.65
2018-12-24T00:09:20.011Z,987.68
2018-12-24T00:10:20.005Z,987.73
2018-12-24T00:11:20.001Z,987.64
2018-12-24T00:12:20.001Z,987.63
2018-12-24T00:13:19.993Z,987.6
2018-12-24T00:14:19.991Z,987.58
2018-12-24T00:15:19.992Z,987.63
2018-12-24T00:16:19.984Z,987.61
2018-12-24T00:17:19.985Z,987.61
2018-12-24T00:18:23.235Z,987.59
2018-12-24T00:19:19.972Z,987.54
2018-12-24T00:20:19.975Z,987.62
2018-12-24T00:21:19.970Z,987.55
2018-12-24T00:22:19.980Z,987.57
2018-12-24T00:23:19.964Z,987.53
2018-12-24T00:24:19.960Z,987.54
2018-12-24T00:25:19.954Z,987.62
2018-12-24T00:26:19.950Z,987.68
2018-12-24T00:27:19.948Z,987.62
2018-12-24T00:28:19.947Z,987.62
2018-12-24T00:29:19.940Z,987.62
2018-12-24T00:30:19.936Z,987.65
2018-12-24T00:31:19.990Z,987.57
2018-12-24T00:32:19.930Z,987.53
2018-12-24T00:33:20.061Z,987.53
2018-12-24T00:34:19.924Z,987.59
2018-12-24T00:35:19.920Z,987.59
2018-12-24T00:36:19.918Z,987.51
2018-12-24T00:37:19.917Z,987.6
2018-12-24T00:38:19.921Z,987.65
2018-12-24T00:39:19.908Z,987.64
2018-12-24T00:40:19.904Z,987.66
2018-12-24T00:41:19.904Z,987.73
2018-12-24T00:42:19.896Z,987.72
2018-12-24T00:43:19.892Z,987.77
2018-12-24T00:44:19.889Z,987.56
2018-12-24T00:45:19.963Z,987.76
2018-12-24T00:46:19.884Z,987.7
2018-12-24T00:47:19.877Z,987.69
2018-12-24T00:48:19.880Z,987.79
2018-12-24T00:49:19.873Z,987.77
2018-12-24T00:50:19.874Z,987.74
2018-12-24T00:51:19.866Z,987.79
2018-12-24T00:52:19.864Z,987.78
2018-12-24T00:53:19.857Z,987.78
2018-12-24T00:54:19.853Z,987.77
2018-12-24T00:55:19.849Z,987.77
2018-12-24T00:56:20.042Z,987.68
2018-12-24T00:57:19.842Z,987.63
2018-12-24T00:58:19.840Z,987.74
2018-12-24T00:59:19.837Z,987.66
2018-12-24T01:00:19.833Z,987.74
2018-12-24T01:01:19.828Z,987.78
2018-12-24T01:02:19.824Z,987.74
2018-12-24T01:03:19.820Z,987.77
2018-12-24T01:04:19.817Z,987.75
2018-12-24T01:05:19.822Z,987.79
2018-12-24T01:06:19.818Z,987.85
2018-12-24T01:07:19.816Z,987.84
2018-12-24T01:08:19.804Z,987.82
2018-12-24T01:09:19.800Z,987.86
2018-12-24T01:10:19.795Z,987.82
2018-12-24T01:11:19.792Z,987.82
2018-12-24T01:12:24.461Z,987.8
2018-12-24T01:13:19.784Z,987.77
2018-12-24T01:14:19.778Z,987.81
2018-12-24T01:15:19.784Z,987.81
2018-12-24T01:16:19.771Z,987.69
2018-12-24T01:17:19.775Z,987.68
2018-12-24T01:18:19.771Z,987.67
2018-12-24T01:19:19.759Z,987.62
2018-12-24T01:20:19.756Z,987.59
2018-12-24T01:21:19.752Z,987.65
2018-12-24T01:22:19.751Z,987.63
2018-12-24T01:23:19.753Z,987.63
2018-12-24T01:24:19.742Z,987.58
2018-12-24T01:25:19.735Z,987.57
2018-12-24T01:26:19.767Z,987.44
2018-12-24T01:27:19.734Z,987.52
2018-12-24T01:28:19.730Z,987.48
2018-12-24T01:29:19.731Z,987.57
2018-12-24T01:30:19.729Z,987.59
2018-12-24T01:31:19.728Z,987.58
2018-12-24T01:32:19.716Z,987.56
2018-12-24T01:33:19.707Z,987.6
2018-12-24T01:34:19.705Z,987.59
2018-12-24T01:35:19.699Z,987.54
2018-12-24T01:36:19.769Z,987.59
2018-12-24T01:37:19.697Z,987.55
2018-12-24T01:38:19.690Z,987.48
2018-12-24T01:39:19.695Z,987.4
2018-12-24T01:40:19.684Z,987.3
2018-12-24T01:41:19.748Z,987.26
2018-12-24T01:42:19.676Z,987.2
2018-12-24T01:43:19.681Z,987.19
2018-12-24T01:44:19.684Z,987.24
2018-12-24T01:45:19.722Z,987.21
2018-12-24T01:46:19.664Z,987.25
2018-12-24T01:47:19.658Z,987.27
2018-12-24T01:48:19.653Z,987.28
2018-12-24T01:49:19.651Z,987.23
2018-12-24T01:50:19.647Z,987.2
2018-12-24T01:51:19.645Z,987.25
2018-12-24T01:52:19.644Z,987.13
2018-12-24T01:53:19.636Z,987.16
2018-12-24T01:54:19.635Z,987.22
2018-12-24T01:55:19.634Z,987.25
2018-12-24T01:56:19.630Z,987.22
2018-12-24T01:57:19.623Z,987.24
2018-12-24T01:58:19.617Z,987.33
2018-12-24T01:59:19.612Z,987.36
2018-12-24T02:00:19.613Z,987.44
2018-12-24T02:01:19.607Z,987.51
2018-12-24T02:02:19.602Z,987.45
2018-12-24T02:03:19.601Z,987.48
2018-12-24T02:04:19.606Z,987.54
2018-12-24T02:05:19.593Z,987.53
2018-12-24T02:06:19.604Z,987.66
2018-12-24T02:07:19.588Z,987.68
2018-12-24T02:08:19.582Z,987.72
2018-12-24T02:09:19.593Z,987.85
2018-12-24T02:10:19.577Z,987.83
2018-12-24T02:11:19.576Z,987.89
2018-12-24T02:12:19.569Z,987.96
2018-12-24T02:13:19.565Z,988.24
2018-12-24T02:14:19.560Z,988.46
2018-12-24T02:15:19.558Z,988.76
2018-12-24T02:16:19.556Z,988.86
2018-12-24T02:17:19.556Z,989.03
2018-12-24T02:18:19.541Z,988.97
2018-12-24T02:19:19.539Z,988.95
2018-12-24T02:20:19.532Z,989.14
2018-12-24T02:21:19.545Z,989.47
2018-12-24T02:22:19.527Z,989.62
2018-12-24T02:23:19.534Z,989.64
2018-12-24T02:24:19.521Z,989.63
2018-12-24T02:25:19.523Z,989.62
2018-12-24T02:26:19.558Z,989.69
2018-12-24T02:27:19.497Z,989.75
2018-12-24T02:28:19.495Z,989.72
2018-12-24T02:29:19.488Z,989.75
2018-12-24T02:30:19.489Z,989.71
2018-12-24T02:31:19.475Z,989.64
2018-12-24T02:32:19.470Z,989.75
2018-12-24T02:33:19.463Z,989.71
2018-12-24T02:34:19.471Z,989.77
2018-12-24T02:35:19.448Z,989.69
2018-12-24T02:36:19.443Z,989.7
2018-12-24T02:37:19.435Z,989.76
2018-12-24T02:38:19.426Z,989.78
2018-12-24T02:39:19.419Z,989.74
2018-12-24T02:40:19.415Z,989.79
2018-12-24T02:41:19.409Z,989.77
2018-12-24T02:42:19.405Z,989.85
2018-12-24T02:43:19.394Z,989.91
2018-12-24T02:44:19.388Z,989.9
2018-12-24T02:45:19.381Z,990.02
2018-12-24T02:46:19.421Z,990.1
2018-12-24T02:47:19.377Z,990.14
2018-12-24T02:48:19.360Z,990.1
2018-12-24T02:49:19.352Z,990.08
2018-12-24T02:50:19.403Z,990.12
2018-12-24T02:51:19.410Z,990.08
2018-12-24T02:52:19.341Z,990.17
2018-12-24T02:53:19.327Z,990.13
2018-12-24T02:54:19.318Z,990.14
2018-12-24T02:55:19.319Z,990.13
2018-12-24T02:56:19.305Z,990.11
2018-12-24T02:57:19.304Z,990.21
2018-12-24T02:58:19.292Z,990.17
2018-12-24T02:59:19.286Z,990.17
2018-12-24T03:00:19.277Z,990.05
2018-12-24T03:01:19.294Z,990.08
2018-12-24T03:02:19.275Z,990.04
2018-12-24T03:03:19.257Z,990.19
2018-12-24T03:04:19.256Z,990.08
2018-12-24T03:05:21.148Z,990.04
2018-12-24T03:06:19.305Z,990.1
2018-12-24T03:07:19.229Z,990.12
2018-12-24T03:08:19.223Z,990.11
2018-12-24T03:09:19.216Z,990.08
2018-12-24T03:10:19.212Z,990.14
2018-12-24T03:11:19.235Z,990.25
2018-12-24T03:12:19.259Z,990.28
2018-12-24T03:13:19.189Z,990.26
2018-12-24T03:14:19.189Z,990.34
2018-12-24T03:15:19.176Z,990.31
2018-12-24T03:16:19.173Z,990.41
2018-12-24T03:17:19.162Z,990.4
2018-12-24T03:18:19.156Z,990.43
2018-12-24T03:19:19.158Z,990.47
2018-12-24T03:20:19.143Z,990.52
2018-12-24T03:21:19.141Z,990.54
2018-12-24T03:22:19.128Z,990.51
2018-12-24T03:23:19.121Z,990.53
2018-12-24T03:24:19.116Z,990.44
2018-12-24T03:25:19.110Z,990.48
2018-12-24T03:26:19.179Z,990.49
2018-12-24T03:27:19.096Z,990.51
2018-12-24T03:28:19.097Z,990.39
2018-12-24T03:29:19.082Z,990.53
2018-12-24T03:30:19.077Z,990.56
2018-12-24T03:31:19.073Z,990.56
2018-12-24T03:32:19.080Z,990.62
2018-12-24T03:33:19.060Z,990.68
2018-12-24T03:34:19.047Z,990.71
2018-12-24T03:35:19.059Z,990.68
2018-12-24T03:36:19.036Z,990.7
2018-12-24T03:37:19.027Z,990.71
2018-12-24T03:38:19.022Z,990.66
2018-12-24T03:39:19.015Z,990.58
2018-12-24T03:40:19.009Z,990.63
2018-12-24T03:41:19.065Z,990.78
2018-12-24T03:42:19.022Z,990.87
2018-12-24T03:43:19.011Z,990.84
2018-12-24T03:44:19.017Z,990.87
2018-12-24T03:45:18.973Z,990.88
2018-12-24T03:46:19.070Z,990.91
2018-12-24T03:47:19.043Z,991.05
2018-12-24T03:48:18.959Z,991.09
2018-12-24T03:49:18.948Z,991.06
2018-12-24T03:50:18.951Z,991.28
2018-12-24T03:51:19.036Z,991.37
2018-12-24T03:52:18.922Z,991.34
2018-12-24T03:53:18.920Z,991.42
2018-12-24T03:54:18.916Z,991.35
2018-12-24T03:55:18.911Z,991.58
2018-12-24T03:56:18.961Z,991.59
2018-12-24T03:57:18.891Z,991.67
2018-12-24T03:58:18.888Z,991.65
2018-12-24T03:59:18.893Z,991.75
2018-12-24T04:00:18.882Z,991.86
2018-12-24T04:01:18.870Z,991.95
2018-12-24T04:02:18.853Z,991.99
2018-12-24T04:03:18.845Z,991.94
2018-12-24T04:04:18.837Z,991.88
2018-12-24T04:05:18.829Z,991.88
2018-12-24T04:06:19.822Z,991.91
2018-12-24T04:07:18.815Z,991.9
2018-12-24T04:08:18.819Z,992.08
2018-12-24T04:09:18.803Z,992.08
2018-12-24T04:10:18.813Z,992.13
2018-12-24T04:11:18.787Z,992.1
2018-12-24T04:12:18.786Z,992.14
2018-12-24T04:13:22.541Z,992.11
2018-12-24T04:14:18.768Z,992.09
2018-12-24T04:15:18.758Z,992.26
2018-12-24T04:16:18.834Z,992.15
2018-12-24T04:17:18.742Z,992.28
2018-12-24T04:18:18.737Z,992.35
2018-12-24T04:19:18.733Z,992.34
2018-12-24T04:20:18.730Z,992.35
2018-12-24T04:21:18.758Z,992.38
2018-12-24T04:22:18.706Z,992.41
2018-12-24T04:23:18.696Z,992.41
2018-12-24T04:24:18.688Z,992.38
2018-12-24T04:25:18.682Z,992.36
2018-12-24T04:26:18.766Z,992.44
2018-12-24T04:27:18.674Z,992.33
2018-12-24T04:28:18.662Z,992.43
2018-12-24T04:29:18.656Z,992.49
2018-12-24T04:30:18.642Z,992.52
2018-12-24T04:31:18.635Z,992.62
2018-12-24T04:32:18.626Z,992.68
2018-12-24T04:33:18.626Z,992.66
2018-12-24T04:34:18.616Z,992.67
2018-12-24T04:35:18.599Z,992.71
2018-12-24T04:36:18.595Z,992.76
2018-12-24T04:37:18.586Z,992.83
2018-12-24T04:38:18.579Z,992.83
2018-12-24T04:39:18.570Z,992.87
2018-12-24T04:40:18.576Z,992.88
2018-12-24T04:41:18.611Z,992.89
2018-12-24T04:42:18.557Z,992.89
2018-12-24T04:43:18.553Z,992.99
2018-12-24T04:44:18.544Z,993.09
2018-12-24T04:45:18.539Z,993.15
2018-12-24T04:46:18.537Z,993.19
2018-12-24T04:47:18.526Z,993.27
2018-12-24T04:48:18.505Z,993.33
2018-12-24T04:49:18.501Z,993.34
2018-12-24T04:50:18.494Z,993.41
2018-12-24T04:51:18.488Z,993.41
2018-12-24T04:52:18.484Z,993.47
2018-12-24T04:53:18.479Z,993.48
2018-12-24T04:54:18.474Z,993.43
2018-12-24T04:55:18.449Z,993.49
2018-12-24T04:56:18.452Z,993.56
2018-12-24T04:57:18.438Z,993.73
2018-12-24T04:58:18.426Z,993.66
2018-12-24T04:59:18.419Z,993.75
2018-12-24T05:00:18.413Z,993.78
2018-12-24T05:01:18.405Z,993.79
2018-12-24T05:02:18.399Z,993.85
2018-12-24T05:03:18.390Z,993.91
2018-12-24T05:04:18.382Z,993.93
2018-12-24T05:05:18.374Z,993.93
2018-12-24T05:06:18.475Z,993.9
2018-12-24T05:07:18.359Z,994.05
2018-12-24T05:08:18.358Z,994.03
2018-12-24T05:09:18.359Z,993.95
2018-12-24T05:10:18.335Z,994.08
2018-12-24T05:11:18.328Z,994.15
2018-12-24T05:12:18.316Z,994.21
2018-12-24T05:13:18.311Z,994.28
2018-12-24T05:14:18.300Z,994.41
2018-12-24T05:15:18.294Z,994.58
2018-12-24T05:16:18.320Z,994.62
2018-12-24T05:17:18.279Z,994.8
2018-12-24T05:18:18.273Z,994.87
2018-12-24T05:19:18.262Z,994.87
2018-12-24T05:20:18.256Z,994.88
2018-12-24T05:21:18.246Z,994.92
2018-12-24T05:22:18.238Z,994.91
2018-12-24T05:23:18.232Z,994.96
2018-12-24T05:24:18.228Z,994.95
2018-12-24T05:25:18.215Z,994.99
2018-12-24T05:26:18.209Z,995.05
2018-12-24T05:27:19.004Z,995.03
2018-12-24T05:28:18.192Z,995.14
2018-12-24T05:29:18.192Z,995.09
2018-12-24T05:30:18.175Z,995.15
2018-12-24T05:31:18.169Z,995.09
2018-12-24T05:32:18.160Z,995.06
2018-12-24T05:33:18.153Z,995.08
2018-12-24T05:34:18.150Z,995.08
2018-12-24T05:35:18.134Z,995.22
2018-12-24T05:36:18.155Z,995.32
2018-12-24T05:37:18.126Z,995.36
2018-12-24T05:38:18.111Z,995.46
2018-12-24T05:39:18.109Z,995.45
2018-12-24T05:40:18.095Z,995.47
2018-12-24T05:41:18.153Z,995.54
2018-12-24T05:42:18.080Z,995.66
2018-12-24T05:43:18.070Z,995.61
2018-12-24T05:44:18.079Z,995.53
2018-12-24T05:45:18.053Z,995.5
2018-12-24T05:46:18.148Z,995.54
2018-12-24T05:47:18.036Z,995.56
2018-12-24T05:48:18.030Z,995.63
2018-12-24T05:49:18.021Z,995.72
2018-12-24T05:50:18.011Z,995.76
2018-12-24T05:51:18.007Z,995.77
2018-12-24T05:52:18.012Z,995.68
2018-12-24T05:53:17.988Z,995.73
2018-12-24T05:54:17.983Z,995.77
2018-12-24T05:55:17.983Z,995.76
2018-12-24T05:56:18.016Z,995.86
2018-12-24T05:57:17.954Z,995.87
2018-12-24T05:58:17.947Z,995.94
2018-12-24T05:59:17.939Z,995.97
2018-12-24T06:00:17.932Z,996.02
2018-12-24T06:01:17.923Z,996
2018-12-24T06:02:17.921Z,996.02
2018-12-24T06:03:17.911Z,996.06
2018-12-24T06:04:17.911Z,996.12
2018-12-24T06:05:17.911Z,996.18
2018-12-24T06:06:18.001Z,996.23
2018-12-24T06:07:17.875Z,996.28
2018-12-24T06:08:17.872Z,996.28
2018-12-24T06:09:17.860Z,996.34
2018-12-24T06:10:17.858Z,996.4
2018-12-24T06:11:17.881Z,996.46
2018-12-24T06:12:17.857Z,996.53
2018-12-24T06:13:17.827Z,996.61
2018-12-24T06:14:17.822Z,996.63
2018-12-24T06:15:17.810Z,996.63
2018-12-24T06:16:17.882Z,996.71
2018-12-24T06:17:17.794Z,996.72
2018-12-24T06:18:17.797Z,996.73
2018-12-24T06:19:17.806Z,996.79
2018-12-24T06:20:17.791Z,996.83
2018-12-24T06:21:17.760Z,996.87
2018-12-24T06:22:17.763Z,996.83
2018-12-24T06:23:17.746Z,996.93
2018-12-24T06:24:17.739Z,996.97
2018-12-24T06:25:17.730Z,996.98
2018-12-24T06:26:17.767Z,996.98
2018-12-24T06:27:17.711Z,997.02
2018-12-24T06:28:17.720Z,997.09
2018-12-24T06:29:17.693Z,997.17
2018-12-24T06:30:17.690Z,997.22
2018-12-24T06:31:17.720Z,997.27
2018-12-24T06:32:17.671Z,997.25
2018-12-24T06:33:17.663Z,997.26
2018-12-24T06:34:17.658Z,997.32
2018-12-24T06:35:17.647Z,997.36
2018-12-24T06:36:17.715Z,997.37
2018-12-24T06:37:17.629Z,997.46
2018-12-24T06:38:17.627Z,997.44
2018-12-24T06:39:17.623Z,997.47
2018-12-24T06:40:17.606Z,997.44
2018-12-24T06:41:17.703Z,997.56
2018-12-24T06:42:18.224Z,997.59
2018-12-24T06:43:17.589Z,997.63
2018-12-24T06:44:17.572Z,997.65
2018-12-24T06:45:17.565Z,997.69
2018-12-24T06:46:17.558Z,997.74
2018-12-24T06:47:17.550Z,997.8
2018-12-24T06:48:17.543Z,997.78
2018-12-24T06:49:17.534Z,997.85
2018-12-24T06:50:17.524Z,997.84
2018-12-24T06:51:17.598Z,997.85
2018-12-24T06:52:17.508Z,997.91
2018-12-24T06:53:17.504Z,998
2018-12-24T06:54:17.492Z,997.97
2018-12-24T06:55:17.487Z,997.99
2018-12-24T06:56:17.530Z,998.01
2018-12-24T06:57:17.468Z,998.1
2018-12-24T06:58:17.463Z,998.09
2018-12-24T06:59:17.452Z,998.17
2018-12-24T07:00:17.445Z,998.23
2018-12-24T07:01:17.490Z,998.27
2018-12-24T07:02:17.444Z,998.27
2018-12-24T07:03:18.222Z,998.34
2018-12-24T07:04:17.411Z,998.36
2018-12-24T07:05:17.419Z,998.36
2018-12-24T07:06:17.397Z,998.36
2018-12-24T07:07:17.427Z,998.41
2018-12-24T07:08:17.379Z,998.4
2018-12-24T07:09:17.372Z,998.53
2018-12-24T07:10:17.363Z,998.57
2018-12-24T07:11:17.356Z,998.56
2018-12-24T07:12:17.347Z,998.6
2018-12-24T07:13:17.350Z,998.64
2018-12-24T07:14:17.331Z,998.65
2018-12-24T07:15:17.374Z,998.65
2018-12-24T07:16:17.441Z,998.69
2018-12-24T07:17:17.318Z,998.75
2018-12-24T07:18:17.303Z,998.82
2018-12-24T07:19:17.291Z,998.88
2018-12-24T07:20:17.292Z,998.87
2018-12-24T07:21:17.276Z,998.96
2018-12-24T07:22:17.278Z,998.93
2018-12-24T07:23:17.259Z,999.04
2018-12-24T07:24:17.255Z,999.06
2018-12-24T07:25:17.243Z,999.11
2018-12-24T07:26:17.238Z,999.14
2018-12-24T07:27:17.229Z,999.17
2018-12-24T07:28:17.227Z,999.24
2018-12-24T07:29:17.217Z,999.24
2018-12-24T07:30:17.203Z,999.25
2018-12-24T07:31:17.909Z,999.29
2018-12-24T07:32:17.189Z,999.32
2018-12-24T07:33:17.193Z,999.38
2018-12-24T07:34:17.173Z,999.37
2018-12-24T07:35:17.167Z,999.42
2018-12-24T07:36:17.240Z,999.48
2018-12-24T07:37:17.150Z,999.5
2018-12-24T07:38:17.141Z,999.5
2018-12-24T07:39:17.135Z,999.47
2018-12-24T07:40:17.170Z,999.48
2018-12-24T07:41:17.118Z,999.49
2018-12-24T07:42:17.109Z,999.53
2018-12-24T07:43:17.102Z,999.53
2018-12-24T07:44:24.053Z,999.52
2018-12-24T07:45:17.104Z,999.6
2018-12-24T07:46:17.082Z,999.58
2018-12-24T07:47:17.072Z,999.56
2018-12-24T07:48:17.067Z,999.64
2018-12-24T07:49:17.055Z,999.65
2018-12-24T07:50:17.063Z,999.67
2018-12-24T07:51:17.041Z,999.62
2018-12-24T07:52:17.038Z,999.66
2018-12-24T07:53:17.025Z,999.62
2018-12-24T07:54:17.014Z,999.56
2018-12-24T07:55:17.007Z,999.7
2018-12-24T07:56:17.093Z,999.69
2018-12-24T07:57:16.991Z,999.7
2018-12-24T07:58:16.984Z,999.72
2018-12-24T07:59:16.980Z,999.74
2018-12-24T08:00:16.971Z,999.75
2018-12-24T08:01:16.959Z,999.73
2018-12-24T08:02:16.951Z,999.78
2018-12-24T08:03:16.944Z,999.75
2018-12-24T08:04:16.937Z,999.73
2018-12-24T08:05:16.932Z,999.77
2018-12-24T08:06:16.928Z,999.75
2018-12-24T08:07:16.915Z,999.76
2018-12-24T08:08:16.904Z,999.78
2018-12-24T08:09:16.896Z,999.81
2018-12-24T08:10:16.888Z,999.79
2018-12-24T08:11:16.886Z,999.81
2018-12-24T08:12:16.876Z,999.81
2018-12-24T08:13:16.866Z,999.84
2018-12-24T08:14:16.857Z,999.86
2018-12-24T08:15:16.848Z,999.84
2018-12-24T08:16:16.847Z,999.87
2018-12-24T08:17:16.835Z,999.89
2018-12-24T08:18:16.824Z,999.89
2018-12-24T08:19:16.821Z,999.93
2018-12-24T08:20:16.827Z,999.91
2018-12-24T08:21:16.803Z,999.98
2018-12-24T08:22:16.796Z,999.94
2018-12-24T08:23:16.795Z,999.93
2018-12-24T08:24:16.781Z,999.96
2018-12-24T08:25:16.777Z,999.97
2018-12-24T08:26:16.762Z,1000.02
2018-12-24T08:27:16.755Z,1000.08
2018-12-24T08:28:16.748Z,1000.07
2018-12-24T08:29:16.740Z,1000.05
2018-12-24T08:30:16.731Z,1000.05
2018-12-24T08:31:16.807Z,1000.09
2018-12-24T08:32:16.716Z,1000.11
2018-12-24T08:33:16.708Z,1000.12
2018-12-24T08:34:16.714Z,1000.1
2018-12-24T08:35:16.693Z,1000.13
2018-12-24T08:36:16.686Z,1000.18
2018-12-24T08:37:16.685Z,1000.18
2018-12-24T08:38:16.670Z,1000.2
2018-12-24T08:39:17.465Z,1000.21
2018-12-24T08:40:16.657Z,1000.24
2018-12-24T08:41:16.655Z,1000.24
2018-12-24T08:42:16.641Z,1000.28
2018-12-24T08:43:16.633Z,1000.32
2018-12-24T08:44:16.623Z,1000.34
2018-12-24T08:45:16.617Z,1000.33
2018-12-24T08:46:16.620Z,1000.31
2018-12-24T08:47:16.599Z,1000.36
2018-12-24T08:48:16.603Z,1000.34
2018-12-24T08:49:16.585Z,1000.32
2018-12-24T08:50:16.584Z,1000.29
2018-12-24T08:51:16.572Z,1000.34
2018-12-24T08:52:16.564Z,1000.34
2018-12-24T08:53:16.561Z,1000.36
2018-12-24T08:54:16.549Z,1000.4
2018-12-24T08:55:16.550Z,1000.38
2018-12-24T08:56:16.545Z,1000.44
2018-12-24T08:57:16.525Z,1000.43
2018-12-24T08:58:16.608Z,1000.48
2018-12-24T08:59:16.511Z,1000.45
2018-12-24T09:00:16.505Z,1000.49
2018-12-24T09:01:16.514Z,1000.47
2018-12-24T09:02:16.488Z,1000.51
2018-12-24T09:03:16.479Z,1000.54
2018-12-24T09:04:16.478Z,1000.57
2018-12-24T09:05:16.464Z,1000.64
2018-12-24T09:06:16.474Z,1000.62
2018-12-24T09:07:16.450Z,1000.69
2018-12-24T09:08:16.444Z,1000.67
2018-12-24T09:09:16.431Z,1000.77
2018-12-24T09:10:16.427Z,1000.78
2018-12-24T09:11:16.419Z,1000.77
2018-12-24T09:12:16.421Z,1000.84
2018-12-24T09:13:16.401Z,1000.84
2018-12-24T09:14:16.391Z,1000.84
2018-12-24T09:15:16.388Z,1000.87
2018-12-24T09:16:16.378Z,1000.89
2018-12-24T09:17:16.370Z,1000.88
2018-12-24T09:18:16.362Z,1000.94
2018-12-24T09:19:16.353Z,1000.95
2018-12-24T09:20:16.344Z,1000.95
2018-12-24T09:21:16.340Z,1000.96
2018-12-24T09:22:16.329Z,1000.92
2018-12-24T09:23:16.326Z,1000.96
2018-12-24T09:24:16.316Z,1000.94
2018-12-24T09:25:17.564Z,1000.95
2018-12-24T09:26:16.300Z,1000.93
2018-12-24T09:27:16.291Z,1000.96
2018-12-24T09:28:16.286Z,1001
2018-12-24T09:29:16.281Z,1001.02
2018-12-24T09:30:16.270Z,1001.02
2018-12-24T09:31:16.299Z,1001.03
2018-12-24T09:32:16.255Z,1001.08
2018-12-24T09:33:16.256Z,1001.04
2018-12-24T09:34:16.257Z,1001.03
2018-12-24T09:35:16.233Z,1001.1
2018-12-24T09:36:16.245Z,1001.08
2018-12-24T09:37:16.218Z,1001.12
2018-12-24T09:38:16.216Z,1001.15
2018-12-24T09:39:16.207Z,1001.2
2018-12-24T09:40:16.196Z,1001.25
2018-12-24T09:41:16.197Z,1001.22
2018-12-24T09:42:16.181Z,1001.21
2018-12-24T09:43:16.173Z,1001.21
2018-12-24T09:44:16.170Z,1001.24
2018-12-24T09:45:16.159Z,1001.29
2018-12-24T09:46:16.158Z,1001.29
2018-12-24T09:47:16.159Z,1001.37
2018-12-24T09:48:16.146Z,1001.35
2018-12-24T09:49:16.130Z,1001.42
2018-12-24T09:50:16.124Z,1001.44
2018-12-24T09:51:16.118Z,1001.41
2018-12-24T09:52:16.112Z,1001.44
2018-12-24T09:53:16.106Z,1001.45
2018-12-24T09:54:16.099Z,1001.46
2018-12-24T09:55:16.096Z,1001.47
2018-12-24T09:56:16.082Z,1001.47
2018-12-24T09:57:16.077Z,1001.47
2018-12-24T09:58:16.068Z,1001.49
2018-12-24T09:59:16.064Z,1001.53
2018-12-24T10:00:16.074Z,1001.53
2018-12-24T10:01:16.048Z,1001.56
2018-12-24T10:02:16.404Z,1001.56
2018-12-24T10:03:16.034Z,1001.54
2018-12-24T10:04:16.029Z,1001.58
2018-12-24T10:05:16.021Z,1001.61
2018-12-24T10:06:16.013Z,1001.58
2018-12-24T10:07:16.010Z,1001.62
2018-12-24T10:08:15.999Z,1001.66
2018-12-24T10:09:15.993Z,1001.7
2018-12-24T10:10:15.988Z,1001.73
2018-12-24T10:11:15.980Z,1001.76
2018-12-24T10:12:15.972Z,1001.78
2018-12-24T10:13:15.968Z,1001.77
2018-12-24T10:14:15.962Z,1001.75
2018-12-24T10:15:15.953Z,1001.78
2018-12-24T10:16:15.951Z,1001.82
2018-12-24T10:17:15.950Z,1001.79
2018-12-24T10:18:15.938Z,1001.77
2018-12-24T10:19:15.930Z,1001.77
2018-12-24T10:20:15.918Z,1001.84
2018-12-24T10:21:15.911Z,1001.83
2018-12-24T10:22:15.906Z,1001.79
2018-12-24T10:23:15.899Z,1001.78
2018-12-24T10:24:15.901Z,1001.8
2018-12-24T10:25:15.894Z,1001.77
2018-12-24T10:26:15.893Z,1001.82
2018-12-24T10:27:15.872Z,1001.79
2018-12-24T10:28:15.873Z,1001.83
2018-12-24T10:29:15.932Z,1001.82
2018-12-24T10:30:15.853Z,1001.81
2018-12-24T10:31:15.843Z,1001.78
2018-12-24T10:32:15.837Z,1001.78
2018-12-24T10:33:15.830Z,1001.78
2018-12-24T10:34:15.822Z,1001.8
2018-12-24T10:35:15.817Z,1001.77
2018-12-24T10:36:15.811Z,1001.78
2018-12-24T10:37:15.804Z,1001.78
2018-12-24T10:38:15.797Z,1001.75
2018-12-24T10:39:15.791Z,1001.79
2018-12-24T10:40:15.782Z,1001.77
2018-12-24T10:41:15.857Z,1001.75
2018-12-24T10:42:15.771Z,1001.8
2018-12-24T10:43:15.762Z,1001.79
2018-12-24T10:44:15.762Z,1001.82
2018-12-24T10:45:16.335Z,1001.79
2018-12-24T10:46:15.743Z,1001.84
2018-12-24T10:47:15.737Z,1001.88
2018-12-24T10:48:15.751Z,1001.89
2018-12-24T10:49:15.722Z,1001.94
2018-12-24T10:50:15.720Z,1001.91
2018-12-24T10:51:15.731Z,1001.98
2018-12-24T10:52:15.715Z,1001.98
2018-12-24T10:53:15.699Z,1002.01
2018-12-24T10:54:15.690Z,1001.98
2018-12-24T10:55:15.681Z,1002.01
2018-12-24T10:56:15.982Z,1001.94
2018-12-24T10:57:15.679Z,1001.97
2018-12-24T10:58:15.674Z,1002
2018-12-24T10:59:15.665Z,1001.96
2018-12-24T11:00:15.661Z,1001.98
2018-12-24T11:01:15.644Z,1001.98
2018-12-24T11:02:15.638Z,1001.98
2018-12-24T11:03:15.630Z,1001.98
2018-12-24T11:04:15.625Z,1002
2018-12-24T11:05:15.619Z,1002
2018-12-24T11:06:15.612Z,1001.99
2018-12-24T11:07:15.605Z,1002.06
2018-12-24T11:08:15.598Z,1002.09
2018-12-24T11:09:15.600Z,1002.06
2018-12-24T11:10:15.592Z,1002.11
2018-12-24T11:11:15.577Z,1002.12
2018-12-24T11:12:15.583Z,1002.11
2018-12-24T11:13:15.570Z,1002.13
2018-12-24T11:14:15.565Z,1002.18
2018-12-24T11:15:15.551Z,1002.15
2018-12-24T11:16:15.546Z,1002.14
2018-12-24T11:17:15.540Z,1002.15
2018-12-24T11:18:15.538Z,1002.18
2018-12-24T11:19:15.528Z,1002.16
2018-12-24T11:20:15.519Z,1002.18
2018-12-24T11:21:15.511Z,1002.17
2018-12-24T11:22:15.504Z,1002.2
2018-12-24T11:23:15.499Z,1002.19
2018-12-24T11:24:15.495Z,1002.18
2018-12-24T11:25:15.485Z,1002.16
2018-12-24T11:26:15.780Z,1002.17
2018-12-24T11:27:15.472Z,1002.19
2018-12-24T11:28:15.465Z,1002.17
2018-12-24T11:29:15.460Z,1002.21
2018-12-24T11:30:15.451Z,1002.19
2018-12-24T11:31:15.448Z,1002.22
2018-12-24T11:32:15.441Z,1002.22
2018-12-24T11:33:15.432Z,1002.23
2018-12-24T11:34:15.427Z,1002.2
2018-12-24T11:35:15.417Z,1002.25
2018-12-24T11:36:15.483Z,1002.23
2018-12-24T11:37:15.408Z,1002.24
2018-12-24T11:38:15.406Z,1002.26
2018-12-24T11:39:15.498Z,1002.31
2018-12-24T11:40:15.385Z,1002.31
2018-12-24T11:41:16.481Z,1002.31
2018-12-24T11:42:15.374Z,1002.28
2018-12-24T11:43:15.374Z,1002.31
2018-12-24T11:44:15.362Z,1002.36
2018-12-24T11:45:15.356Z,1002.36
2018-12-24T11:46:15.349Z,1002.36
2018-12-24T11:47:15.349Z,1002.41
2018-12-24T11:48:15.337Z,1002.41
2018-12-24T11:49:15.336Z,1002.43
2018-12-24T11:50:15.323Z,1002.43
2018-12-24T11:51:15.321Z,1002.45
2018-12-24T11:52:15.310Z,1002.46
2018-12-24T11:53:15.302Z,1002.5
2018-12-24T11:54:15.294Z,1002.5
2018-12-24T11:55:15.295Z,1002.55
2018-12-24T11:56:15.282Z,1002.59
2018-12-24T11:57:15.281Z,1002.52
2018-12-24T11:58:16.739Z,1002.54
2018-12-24T11:59:15.265Z,1002.55
2018-12-24T12:00:15.272Z,1002.61
2018-12-24T12:01:15.246Z,1002.57
2018-12-24T12:02:15.241Z,1002.61
2018-12-24T12:03:15.232Z,1002.61
2018-12-24T12:04:15.227Z,1002.61
2018-12-24T12:05:15.218Z,1002.57
2018-12-24T12:06:19.599Z,1002.53
2018-12-24T12:07:15.204Z,1002.51
2018-12-24T12:08:15.195Z,1002.54
2018-12-24T12:09:15.189Z,1002.56
2018-12-24T12:10:15.185Z,1002.57
2018-12-24T12:11:15.175Z,1002.62
2018-12-24T12:12:15.168Z,1002.6
2018-12-24T12:13:15.166Z,1002.61
2018-12-24T12:14:15.155Z,1002.64
2018-12-24T12:15:15.147Z,1002.68
2018-12-24T12:16:15.141Z,1002.7
2018-12-24T12:17:15.141Z,1002.73
2018-12-24T12:18:15.127Z,1002.69
2018-12-24T12:19:15.123Z,1002.72
2018-12-24T12:20:15.111Z,1002.75
2018-12-24T12:21:15.107Z,1002.79
2018-12-24T12:22:15.097Z,1002.75
2018-12-24T12:23:15.092Z,1002.77